createdAt,value
2022-08-11T00:02:36.780Z,4.50
2022-08-11T00:05:11.085Z,4.05
2022-08-11T00:07:47.510Z,4.97
2022-08-11T00:10:19.512Z,4.07
2022-08-11T00:12:55.771Z,3.90
2022-08-11T00:15:26.786Z,3.75
2022-08-11T00:18:03.022Z,3.80
2022-08-11T00:20:35.166Z,3.88
2022-08-11T00:23:09.137Z,3.42
2022-08-11T00:25:42.377Z,3.72
2022-08-11T00:28:27.942Z,3.75
2022-08-11T00:30:59.375Z,3.78
2022-08-11T00:33:44.850Z,4.03
2022-08-11T00:36:24.905Z,3.60
2022-08-11T00:38:56.821Z,3.47
2022-08-11T00:41:35.417Z,3.53
2022-08-11T00:44:35.563Z,3.30
2022-08-11T00:47:19.362Z,3.20
2022-08-11T00:50:05.471Z,3.97
2022-08-11T00:53:06.197Z,3.20
2022-08-11T00:56:05.643Z,3.20
2022-08-11T00:59:35.263Z,3.58
2022-08-11T01:02:21.362Z,3.00
2022-08-11T01:05:31.558Z,3.88
2022-08-11T01:08:28.939Z,3.65
2022-08-11T01:11:26.389Z,3.60
2022-08-11T01:14:19.249Z,3.78
2022-08-11T01:17:32.886Z,4.03
2022-08-11T01:20:45.970Z,4.00
2022-08-11T01:24:14.361Z,3.92
2022-08-11T01:27:19.251Z,4.15
2022-08-11T01:30:21.787Z,4.20
2022-08-11T01:33:26.717Z,5.10
2022-08-11T01:36:32.015Z,4.35
2022-08-11T01:39:32.649Z,4.63
2022-08-11T01:42:53.499Z,4.75
2022-08-11T01:45:38.220Z,4.30
2022-08-11T01:48:17.447Z,4.43
2022-08-11T01:51:08.776Z,3.95
2022-08-11T01:53:57.857Z,3.85
2022-08-11T01:56:41.024Z,4.32
2022-08-11T01:59:18.689Z,4.53
2022-08-11T02:02:21.655Z,4.50
2022-08-11T02:05:00.129Z,3.95
2022-08-11T02:07:39.564Z,3.75
2022-08-11T02:10:38.379Z,4.13
2022-08-11T02:13:19.516Z,4.13
2022-08-11T02:16:12.936Z,3.90
2022-08-11T02:19:00.262Z,4.20
2022-08-11T02:21:53.788Z,3.67
2022-08-11T02:24:31.713Z,3.97
2022-08-11T02:27:09.678Z,4.10
2022-08-11T02:29:49.029Z,4.20
2022-08-11T02:32:36.557Z,3.70
2022-08-11T02:35:17.174Z,3.90
2022-08-11T02:37:55.651Z,4.38
2022-08-11T02:40:34.101Z,4.70
2022-08-11T02:43:15.213Z,4.63
2022-08-11T02:45:57.325Z,4.60
2022-08-11T02:48:54.999Z,4.55
2022-08-11T02:51:35.290Z,4.70
2022-08-11T02:54:15.944Z,4.57
2022-08-11T02:56:54.499Z,5.20
2022-08-11T02:59:55.258Z,4.70
2022-08-11T03:02:49.471Z,4.85
2022-08-11T03:05:34.647Z,5.22
2022-08-11T03:08:32.273Z,5.40
2022-08-11T03:11:22.430Z,5.88
2022-08-11T03:14:14.456Z,6.10
2022-08-11T03:16:55.914Z,5.95
2022-08-11T03:19:37.898Z,5.88
2022-08-11T03:22:20.062Z,5.95
2022-08-11T03:25:01.305Z,5.85
2022-08-11T03:27:39.661Z,7.47
2022-08-11T03:30:14.713Z,5.93
2022-08-11T03:33:09.197Z,5.65
2022-08-11T03:35:45.405Z,5.55
2022-08-11T03:38:18.744Z,6.32
2022-08-11T03:42:01.246Z,5.60
2022-08-11T03:44:13.392Z,5.20
2022-08-11T03:47:03.330Z,6.18
2022-08-11T03:49:55.248Z,6.05
2022-08-11T03:52:34.450Z,5.45
2022-08-11T03:55:13.762Z,6.63
2022-08-11T03:58:11.161Z,5.63
2022-08-11T04:01:11.038Z,5.10
2022-08-11T04:04:09.282Z,5.80
2022-08-11T04:07:22.660Z,5.75
2022-08-11T04:10:26.924Z,5.80
2022-08-11T04:13:19.402Z,6.05
2022-08-11T04:16:12.474Z,5.68
2022-08-11T04:19:24.932Z,5.57
2022-08-11T04:22:25.950Z,6.03
2022-08-11T04:25:18.461Z,5.60
2022-08-11T04:28:09.648Z,6.20
2022-08-11T04:31:44.291Z,5.25
2022-08-11T04:34:52.395Z,5.45
2022-08-11T04:38:09.216Z,4.93
2022-08-11T04:41:16.607Z,5.40
2022-08-11T04:44:28.100Z,5.70
2022-08-11T04:48:03.726Z,5.57
2022-08-11T04:51:09.699Z,7.55
2022-08-11T04:54:15.863Z,5.78
2022-08-11T04:57:00.839Z,5.97
2022-08-11T05:00:03.871Z,7.20
2022-08-11T05:02:59.744Z,6.53
2022-08-11T05:05:56.529Z,6.45
2022-08-11T05:08:51.271Z,5.60
2022-08-11T05:11:46.249Z,5.25
2022-08-11T05:14:45.724Z,5.80
2022-08-11T05:17:31.544Z,6.18
2022-08-11T05:20:14.026Z,5.82
2022-08-11T05:23:03.357Z,6.40
2022-08-11T05:26:45.212Z,5.95
2022-08-11T05:28:57.891Z,5.85
2022-08-11T05:31:48.901Z,6.10
2022-08-11T05:34:38.257Z,6.82
2022-08-11T05:37:26.323Z,6.25
2022-08-11T05:40:15.411Z,5.28
2022-08-11T05:43:05.576Z,5.35
2022-08-11T05:46:02.950Z,5.80
2022-08-11T05:48:49.101Z,6.85
2022-08-11T05:51:32.058Z,5.68
2022-08-11T05:54:28.682Z,6.90
2022-08-11T05:57:02.136Z,5.82
2022-08-11T05:59:34.448Z,5.47
2022-08-11T06:02:10.283Z,6.05
2022-08-11T06:04:41.251Z,6.45
2022-08-11T06:07:13.066Z,5.10
2022-08-11T06:09:51.256Z,4.85
2022-08-11T06:12:24.816Z,6.25
2022-08-11T06:15:06.778Z,5.55
2022-08-11T06:17:48.305Z,5.30
2022-08-11T06:20:20.925Z,5.97
2022-08-11T06:23:01.832Z,6.20
2022-08-11T06:25:36.656Z,5.45
2022-08-11T06:28:08.686Z,5.38
2022-08-11T06:30:43.755Z,5.20
2022-08-11T06:33:18.424Z,5.70
2022-08-11T06:35:54.595Z,5.53
2022-08-11T06:38:42.505Z,5.47
2022-08-11T06:41:35.213Z,5.10
2022-08-11T06:44:22.739Z,5.60
2022-08-11T06:46:56.169Z,3.80
2022-08-11T06:49:50.322Z,4.95
2022-08-11T06:52:33.999Z,4.40
2022-08-11T06:55:56.596Z,3.97
2022-08-11T06:58:13.110Z,7.07
2022-08-11T07:00:44.621Z,5.30
2022-08-11T07:03:19.720Z,4.70
2022-08-11T07:05:56.116Z,4.32
2022-08-11T07:09:02.825Z,4.03
2022-08-11T07:12:23.842Z,4.05
2022-08-11T07:15:10.835Z,4.15
2022-08-11T07:17:50.000Z,4.07
2022-08-11T07:20:33.545Z,3.55
2022-08-11T07:23:21.898Z,3.85
2022-08-11T07:26:09.333Z,4.65
2022-08-11T07:28:55.274Z,3.58
2022-08-11T07:31:50.280Z,2.92
2022-08-11T07:34:24.698Z,3.40
2022-08-11T07:36:57.630Z,3.95
2022-08-11T07:39:34.768Z,3.40
2022-08-11T07:42:13.760Z,3.53
2022-08-11T07:44:57.289Z,2.80
2022-08-11T07:47:40.724Z,4.90
2022-08-11T07:50:25.480Z,4.40
2022-08-11T07:52:56.336Z,4.40
2022-08-11T07:55:49.565Z,3.58
2022-08-11T07:58:41.428Z,2.70
2022-08-11T08:01:33.780Z,3.72
2022-08-11T08:04:16.274Z,3.60
2022-08-11T08:06:59.133Z,3.35
2022-08-11T08:09:42.063Z,3.65
2022-08-11T08:12:28.795Z,3.58
2022-08-11T08:15:12.734Z,2.92
2022-08-11T08:18:20.852Z,2.60
2022-08-11T08:20:50.458Z,3.13
2022-08-11T08:23:33.550Z,3.63
2022-08-11T08:26:27.289Z,3.30
2022-08-11T08:29:22.246Z,4.15
2022-08-11T08:31:50.805Z,3.53
2022-08-11T08:34:21.905Z,2.63
2022-08-11T08:36:53.886Z,3.08
2022-08-11T08:39:24.912Z,2.65
2022-08-11T08:41:57.687Z,2.70
2022-08-11T08:44:40.903Z,3.00
2022-08-11T08:47:41.004Z,2.72
2022-08-11T08:50:08.371Z,2.70
2022-08-11T08:52:46.012Z,3.17
2022-08-11T08:55:22.801Z,2.80
2022-08-11T08:57:55.499Z,2.47
2022-08-11T09:00:28.107Z,2.75
2022-08-11T09:02:58.130Z,2.50
2022-08-11T09:05:28.011Z,2.30
2022-08-11T09:07:58.481Z,2.30
2022-08-11T09:10:31.141Z,2.40
2022-08-11T09:13:02.989Z,2.58
2022-08-11T09:15:37.766Z,1.92
2022-08-11T09:18:11.110Z,1.98
2022-08-11T09:20:42.241Z,1.88
2022-08-11T09:26:30.997Z,1.90
2022-08-11T09:29:04.717Z,2.10
2022-08-11T09:31:40.391Z,1.75
2022-08-11T09:34:10.893Z,2.25
2022-08-11T09:36:55.141Z,2.20
2022-08-11T09:39:37.921Z,2.20
2022-08-11T09:42:23.811Z,2.60
2022-08-11T09:44:53.946Z,8.75
2022-08-11T09:47:29.072Z,2.25
2022-08-11T09:50:01.876Z,1.98
2022-08-11T09:52:34.404Z,1.80
2022-08-11T09:55:11.387Z,1.60
2022-08-11T09:57:55.352Z,1.90
2022-08-11T10:00:32.111Z,1.77
2022-08-11T10:03:07.267Z,1.50
2022-08-11T10:05:50.382Z,1.50
2022-08-11T10:08:21.821Z,1.70
2022-08-11T10:10:53.374Z,1.63
2022-08-11T10:14:03.710Z,2.00
2022-08-11T10:16:17.740Z,1.52
2022-08-11T10:18:54.419Z,1.45
2022-08-11T10:21:34.725Z,1.83
2022-08-11T10:24:18.447Z,1.73
2022-08-11T10:27:00.229Z,1.85
2022-08-11T10:29:49.979Z,1.30
2022-08-11T10:32:46.328Z,1.50
2022-08-11T10:35:30.004Z,1.80
2022-08-11T10:38:08.984Z,1.75
2022-08-11T10:40:41.737Z,2.13
2022-08-11T10:43:14.240Z,1.92
2022-08-11T10:46:00.855Z,1.90
2022-08-11T10:48:33.325Z,1.80
2022-08-11T10:51:42.782Z,1.98
2022-08-11T10:54:21.101Z,1.35
2022-08-11T10:57:03.540Z,1.90
2022-08-11T10:59:36.860Z,1.80
2022-08-11T11:02:07.031Z,1.83
2022-08-11T11:05:09.411Z,2.08
2022-08-11T11:07:50.603Z,1.45
2022-08-11T11:10:21.646Z,2.00
2022-08-11T11:13:14.618Z,1.55
2022-08-11T11:16:01.143Z,1.85
2022-08-11T11:18:35.984Z,2.20
2022-08-11T11:21:10.255Z,1.48
2022-08-11T11:23:47.600Z,1.65
2022-08-11T11:26:38.709Z,2.83
2022-08-11T11:29:28.215Z,3.28
2022-08-11T11:32:12.360Z,2.97
2022-08-11T11:35:16.812Z,2.50
2022-08-11T11:38:04.612Z,2.20
2022-08-11T11:40:39.321Z,2.35
2022-08-11T11:43:09.597Z,2.35
2022-08-11T11:45:39.696Z,1.83
2022-08-11T11:48:10.615Z,1.77
2022-08-11T11:50:41.093Z,1.80
2022-08-11T11:53:14.365Z,2.08
2022-08-11T11:55:47.274Z,1.98
2022-08-11T11:58:29.896Z,2.00
2022-08-11T12:01:13.516Z,1.92
2022-08-11T12:03:43.894Z,1.73
2022-08-11T12:06:15.025Z,2.30
2022-08-11T12:08:46.071Z,1.80
2022-08-11T12:11:31.467Z,1.70
2022-08-11T12:14:03.429Z,1.70
2022-08-11T12:16:42.204Z,1.88
2022-08-11T12:19:14.363Z,1.98
2022-08-11T12:22:05.830Z,1.67
2022-08-11T12:24:50.212Z,2.22
2022-08-11T12:27:25.261Z,1.92
2022-08-11T12:29:58.263Z,1.67
2022-08-11T12:32:33.622Z,1.73
2022-08-11T12:35:04.062Z,2.00
2022-08-11T12:37:35.786Z,1.80
2022-08-11T12:40:43.711Z,1.80
2022-08-11T12:43:38.488Z,1.90
2022-08-11T12:46:11.384Z,1.87
2022-08-11T12:49:02.432Z,1.65
2022-08-11T12:52:08.523Z,1.55
2022-08-11T12:54:49.821Z,1.90
2022-08-11T12:57:36.442Z,1.77
2022-08-11T13:00:24.641Z,1.60
2022-08-11T13:03:07.934Z,1.98
2022-08-11T13:05:44.609Z,2.20
2022-08-11T13:08:16.601Z,2.10
2022-08-11T13:11:00.110Z,2.08
2022-08-11T13:13:53.470Z,2.17
2022-08-11T13:16:25.669Z,1.80
2022-08-11T13:18:56.152Z,1.95
2022-08-11T13:21:26.680Z,1.70
2022-08-11T13:23:59.719Z,1.73
2022-08-11T13:26:47.566Z,2.50
2022-08-11T13:29:24.775Z,2.33
2022-08-11T13:32:00.700Z,2.30
2022-08-11T13:34:34.477Z,2.35
2022-08-11T13:37:06.040Z,2.20
2022-08-11T13:39:37.383Z,2.22
2022-08-11T13:42:08.671Z,2.10
2022-08-11T13:44:40.755Z,2.20
2022-08-11T13:47:16.149Z,2.35
2022-08-11T13:49:48.090Z,2.20
2022-08-11T13:52:20.349Z,2.13
2022-08-11T13:54:53.977Z,2.05
2022-08-11T13:58:08.384Z,2.45
2022-08-11T14:00:26.947Z,2.38
2022-08-11T14:03:02.207Z,2.20
2022-08-11T14:05:37.079Z,2.42
2022-08-11T14:08:37.656Z,1.95
2022-08-11T14:11:19.976Z,2.03
2022-08-11T14:14:12.303Z,2.00
2022-08-11T14:16:45.961Z,2.15
2022-08-11T14:19:18.843Z,1.60
2022-08-11T14:22:07.253Z,1.83
2022-08-11T14:24:39.688Z,2.20
2022-08-11T14:27:39.101Z,1.80
2022-08-11T14:30:02.324Z,1.85
2022-08-11T14:32:32.457Z,1.88
2022-08-11T14:35:07.020Z,1.70
2022-08-11T14:37:38.008Z,2.30
2022-08-11T14:40:31.844Z,1.80
2022-08-11T14:43:16.391Z,2.10
2022-08-11T14:45:59.952Z,1.98
2022-08-11T14:48:29.890Z,1.92
2022-08-11T14:51:02.396Z,2.20
2022-08-11T14:53:32.208Z,1.80
2022-08-11T14:56:15.907Z,1.95
2022-08-11T14:58:46.161Z,2.20
2022-08-11T15:01:29.070Z,2.30
2022-08-11T15:04:34.316Z,2.10
2022-08-11T15:06:56.051Z,2.20
2022-08-11T15:09:25.956Z,2.30
2022-08-11T15:12:08.104Z,1.80
2022-08-11T15:15:10.817Z,1.75
2022-08-11T15:17:43.472Z,2.28
2022-08-11T15:20:30.001Z,2.05
2022-08-11T15:23:15.181Z,1.77
2022-08-11T15:25:48.604Z,1.80
2022-08-11T15:28:39.823Z,2.20
2022-08-11T15:31:22.342Z,2.20
2022-08-11T15:34:08.548Z,1.65
2022-08-11T15:36:52.283Z,2.30
2022-08-11T15:39:28.024Z,2.13
2022-08-11T15:42:16.141Z,1.70
2022-08-11T15:45:05.485Z,1.80
2022-08-11T15:47:41.404Z,2.15
2022-08-11T15:50:16.926Z,2.20
2022-08-11T15:52:54.649Z,1.92
2022-08-11T15:55:30.013Z,2.30
2022-08-11T15:58:17.606Z,2.20
2022-08-11T16:01:04.285Z,2.38
2022-08-11T16:04:07.160Z,2.05
2022-08-11T16:06:47.886Z,2.20
2022-08-11T16:09:24.790Z,2.20
2022-08-11T16:12:02.432Z,2.00
2022-08-11T16:14:48.272Z,2.40
2022-08-11T16:17:20.324Z,2.10
2022-08-11T16:19:54.517Z,2.13
2022-08-11T16:22:34.673Z,2.72
2022-08-11T16:27:02.680Z,2.22
2022-08-11T16:28:04.149Z,2.15
2022-08-11T16:30:35.223Z,2.42
2022-08-11T16:33:49.110Z,2.08
2022-08-11T16:36:10.271Z,2.47
2022-08-11T16:38:41.808Z,2.53
2022-08-11T16:41:15.152Z,2.63
2022-08-11T16:44:02.218Z,4.18
2022-08-11T16:46:46.131Z,2.30
2022-08-11T16:49:19.952Z,2.47
2022-08-11T16:51:50.548Z,2.25
2022-08-11T16:54:20.392Z,2.45
2022-08-11T16:56:54.269Z,2.20
2022-08-11T16:59:30.036Z,2.15
2022-08-11T17:02:05.326Z,2.00
2022-08-11T17:04:54.808Z,2.20
2022-08-11T17:07:41.607Z,2.10
2022-08-11T17:10:31.888Z,2.22
2022-08-11T17:13:25.790Z,2.53
2022-08-11T17:16:12.821Z,2.33
2022-08-11T17:18:57.684Z,2.75
2022-08-11T17:21:30.757Z,2.38
2022-08-11T17:24:06.355Z,2.90
2022-08-11T17:26:58.804Z,2.92
2022-08-11T17:29:32.207Z,3.78
2022-08-11T17:32:19.552Z,2.92
2022-08-11T17:35:03.044Z,2.30
2022-08-11T17:37:36.087Z,2.40
2022-08-11T17:40:10.001Z,2.30
2022-08-11T17:43:02.546Z,2.60
2022-08-11T17:45:45.148Z,2.70
2022-08-11T17:48:30.687Z,2.20
2022-08-11T17:51:03.309Z,2.60
2022-08-11T17:54:09.952Z,2.30
2022-08-11T17:56:51.170Z,2.80
2022-08-11T17:59:34.491Z,2.30
2022-08-11T18:02:20.564Z,2.78
2022-08-11T18:04:54.420Z,3.10
2022-08-11T18:07:38.409Z,2.65
2022-08-11T18:10:23.450Z,2.83
2022-08-11T18:13:06.789Z,2.13
2022-08-11T18:15:50.209Z,3.92
2022-08-11T18:18:38.308Z,2.50
2022-08-11T18:21:25.160Z,2.72
2022-08-11T18:24:09.961Z,2.20
2022-08-11T18:26:52.323Z,2.20
2022-08-11T18:29:41.998Z,2.55
2022-08-11T18:32:46.179Z,2.33
2022-08-11T18:35:29.929Z,2.60
2022-08-11T18:38:18.423Z,2.20
2022-08-11T18:41:04.025Z,2.25
2022-08-11T18:43:50.221Z,2.10
2022-08-11T18:46:35.145Z,2.50
2022-08-11T18:49:23.300Z,2.33
2022-08-11T18:52:10.809Z,2.90
2022-08-11T18:54:58.604Z,2.40
2022-08-11T18:57:50.116Z,2.15
2022-08-11T19:00:37.758Z,2.90
2022-08-11T19:03:21.160Z,2.15
2022-08-11T19:06:37.303Z,2.70
2022-08-11T19:09:10.048Z,2.80
2022-08-11T19:11:56.563Z,2.40
2022-08-11T19:14:44.817Z,3.15
2022-08-11T19:17:45.158Z,2.95
2022-08-11T19:20:31.845Z,3.08
2022-08-11T19:23:15.438Z,2.58
2022-08-11T19:25:59.380Z,3.08
2022-08-11T19:28:45.277Z,2.80
2022-08-11T19:31:28.213Z,2.90
2022-08-11T19:34:11.575Z,2.83
2022-08-11T19:36:54.824Z,2.50
2022-08-11T19:39:37.917Z,3.08
2022-08-11T19:42:22.262Z,3.28
2022-08-11T19:45:09.175Z,2.90
2022-08-11T19:48:07.978Z,2.78
2022-08-11T19:50:55.975Z,3.10
2022-08-11T19:53:39.309Z,3.03
2022-08-11T19:56:22.555Z,2.88
2022-08-11T19:59:06.331Z,3.10
2022-08-11T20:02:12.942Z,3.10
2022-08-11T20:04:53.544Z,3.08
2022-08-11T20:07:36.604Z,3.70
2022-08-11T20:10:21.088Z,3.28
2022-08-11T20:13:04.494Z,3.50
2022-08-11T20:15:47.332Z,3.50
2022-08-11T20:18:33.507Z,4.07
2022-08-11T20:21:26.215Z,3.65
2022-08-11T20:24:16.709Z,3.78
2022-08-11T20:26:59.341Z,4.20
2022-08-11T20:29:45.448Z,4.07
2022-08-11T20:32:28.367Z,4.45
2022-08-11T20:35:15.664Z,3.80
2022-08-11T20:37:59.887Z,3.67
2022-08-11T20:40:43.910Z,3.70
2022-08-11T20:44:08.303Z,4.00
2022-08-11T20:46:31.031Z,3.45
2022-08-11T20:49:14.608Z,3.53
2022-08-11T20:52:01.283Z,4.22
2022-08-11T20:54:50.120Z,4.53
2022-08-11T20:57:35.566Z,4.57
2022-08-11T21:00:39.105Z,4.78
2022-08-11T21:06:32.860Z,4.70
2022-08-11T21:09:20.943Z,4.07
2022-08-11T21:12:09.747Z,4.78
2022-08-11T21:14:56.884Z,4.65
2022-08-11T21:18:00.079Z,4.18
2022-08-11T21:20:44.591Z,4.75
2022-08-11T21:23:29.090Z,4.15
2022-08-11T21:26:18.204Z,4.53
2022-08-11T21:29:02.055Z,4.55
2022-08-11T21:31:46.267Z,4.07
2022-08-11T21:34:31.849Z,4.57
2022-08-11T21:37:16.832Z,5.07
2022-08-11T21:40:01.602Z,5.20
2022-08-11T21:42:49.523Z,4.60
2022-08-11T21:45:33.303Z,5.45
2022-08-11T21:48:17.864Z,5.60
2022-08-11T21:51:00.026Z,5.60
2022-08-11T21:53:43.119Z,5.53
2022-08-11T21:56:27.765Z,6.05
2022-08-11T21:59:13.872Z,6.13
2022-08-11T22:01:56.509Z,4.95
2022-08-11T22:04:40.554Z,5.20
2022-08-11T22:07:23.361Z,5.25
2022-08-11T22:10:27.233Z,4.95
2022-08-11T22:13:08.187Z,5.50
2022-08-11T22:15:53.330Z,5.03
2022-08-11T22:18:35.532Z,5.72
2022-08-11T22:22:01.015Z,5.25
2022-08-11T22:24:30.300Z,5.90
2022-08-11T22:27:12.533Z,5.85
2022-08-11T22:29:54.681Z,5.80
2022-08-11T22:32:40.420Z,5.30
2022-08-11T22:35:28.521Z,5.93
2022-08-11T22:38:12.697Z,5.85
2022-08-11T22:40:54.853Z,5.82
2022-08-11T22:43:37.215Z,5.55
2022-08-11T22:46:19.716Z,4.82
2022-08-11T22:49:05.164Z,5.50
2022-08-11T22:51:49.182Z,4.95
2022-08-11T22:54:32.341Z,5.30
2022-08-11T22:57:14.988Z,5.00
2022-08-11T22:59:57.804Z,4.50
2022-08-11T23:02:41.616Z,5.00
2022-08-11T23:05:28.707Z,4.72
2022-08-11T23:08:12.637Z,4.95
2022-08-11T23:10:55.741Z,5.60
2022-08-11T23:13:38.803Z,4.90
2022-08-11T23:16:21.964Z,6.00
2022-08-11T23:19:05.078Z,6.47
2022-08-11T23:21:50.619Z,6.38
2022-08-11T23:24:33.532Z,7.97
2022-08-11T23:27:17.934Z,8.00
2022-08-11T23:30:02.916Z,7.97
2022-08-11T23:32:46.974Z,8.18
2022-08-11T23:35:38.553Z,7.35
2022-08-11T23:38:24.444Z,6.47
2022-08-11T23:41:06.853Z,7.00
2022-08-11T23:43:49.259Z,6.40
2022-08-11T23:46:34.682Z,6.63
2022-08-11T23:49:19.149Z,6.18
2022-08-11T23:52:02.236Z,6.43
2022-08-11T23:54:48.704Z,6.28
2022-08-11T23:57:31.391Z,5.93
